Palm Beach International Airport
KPBI : now visible

Airfield :











YOU CAN JOIN US ON...

 
LOGIN :

Register | Disclaimer

   EN    FR    IT 

 









Legend :    VFR   Marginal VFR   IFR   Intensive IFR   Very Intensive IFR
Visi :
Ceiling :
>= 8 km
>= 3000ft
5 to 8 km
1000 to 3000 ft
1500m to 5 km
500 to 1000 ft
800 to 1500m
200 to 500 ft
< 800m
< 200 ft
Symbols :   Thunderstorms  Fog  Heavy snow  Heavy precipitations  Wind > 20 kt







- Airport Elevation : 19 ft
- IATA code : PBI


KPBI - Palm Beach International

CURRENT METAR :
  • 191353Z 13009KT 10SM SCT027 SCT034 BKN250 29/23 A3010 RMK AO2 SLP193 TCU DSNT NE T02940228 $

EXPIRED METARs :
  • 191253Z 14010KT 10SM SCT023 SCT033 SCT250 29/23 A3009 RMK AO2 SLP187 TCU DSNT NW-N T02940233 $
  • 191153Z 12006KT 10SM SCT022TCU SCT028 SCT250 28/24 A3008 RMK AO2 SLP184 TCU OHD-N-E T02830239 10283 20267 53007 $

TAF KPBI
Valid from the 19 at 12:00 until the 20 at 12:00 UTC


191128Z 1912/2012 12006KT P6SM VCSH SCT020 SCT250
FM191300 13010KT P6SM VCSH SCT025 BKN080
FM191800 12008KT P6SM SCT030 BKN250
FM200100 12005KT P6SM FEW025 SCT250
KZMA FIR / North America



MET'MAP, your aeronautical weather chart ! - Copyright ORBIFLY December 2007 - Disclaimer

ORBIFLY MET'MAP TEAM :

Programming & Development : Alexandra Zaïnal
Concept & Development : Baudouin d'Aumeries
Co-Development & Prog : Marc-Olivier Méhu
Technical & hardware support : Manuel Goepfert

Contact : metmap@orbifly.com




SOURCES & CREDITS :

   NOAA       Earth
Advisory